Time;durP1;ratioP1;P1;durP2;ratioP2;P2;SDS_P1;SDS_P2;PMS_P1;PMS_P2;Temp;Humidity;BMP_temperature;BMP_pressure;BME280_temperature;BME280_humidity;BME280_pressure;Samples;Min_cycle;Max_cycle;Signal;HPM_P1;HPM_P2
2023/09/10 00:00:45;;;;;;;14.95;7.40;;;19.30;99.90;;;;;;5037812;28;20029;-70
2023/09/10 00:03:13;;;;;;;10.77;6.78;;;19.40;99.90;;;;;;5037538;28;20017;-70
2023/09/10 00:05:39;;;;;;;12.32;8.32;;;19.40;99.90;;;;;;5019994;28;20025;-70
2023/09/10 00:08:05;;;;;;;11.15;7.75;;;19.40;99.90;;;;;;5037833;28;20036;-70
2023/09/10 00:10:30;;;;;;;12.23;8.18;;;19.30;99.90;;;;;;5037980;28;20018;-70
2023/09/10 00:12:56;;;;;;;15.75;7.72;;;19.20;99.90;;;;;;5037858;28;20104;-70
2023/09/10 00:15:22;;;;;;;13.25;7.53;;;19.20;99.90;;;;;;5037635;28;20075;-70
2023/09/10 00:17:47;;;;;;;10.90;7.38;;;19.10;99.90;;;;;;5020448;28;20053;-70
2023/09/10 00:20:13;;;;;;;11.13;7.53;;;19.00;99.90;;;;;;5019877;28;20021;-70
2023/09/10 00:22:42;;;;;;;10.52;7.03;;;19.00;99.90;;;;;;5020011;28;20022;-70
2023/09/10 00:25:09;;;;;;;14.80;7.70;;;18.90;99.90;;;;;;5037369;28;20018;-70
2023/09/10 00:27:34;;;;;;;11.63;7.85;;;19.00;99.90;;;;;;5038306;28;20051;-70
2023/09/10 00:30:00;;;;;;;10.15;7.68;;;19.00;99.90;;;;;;5037770;28;20089;-71
2023/09/10 00:32:25;;;;;;;12.77;7.65;;;19.00;99.90;;;;;;5020169;28;20045;-70
2023/09/10 00:34:51;;;;;;;9.40;7.50;;;18.90;99.90;;;;;;5020109;28;20056;-70
2023/09/10 00:37:17;;;;;;;12.13;7.10;;;18.80;99.90;;;;;;5019885;28;20029;-70
2023/09/10 00:39:42;;;;;;;9.38;7.05;;;18.80;99.90;;;;;;5036888;28;20024;-70
2023/09/10 00:42:09;;;;;;;9.13;7.00;;;18.80;99.90;;;;;;5019632;28;20036;-70
2023/09/10 00:44:35;;;;;;;10.77;7.13;;;18.70;99.90;;;;;;5037032;28;20105;-70
2023/09/10 00:47:03;;;;;;;10.35;6.63;;;18.70;99.90;;;;;;5019514;28;20029;-70
2023/09/10 00:49:29;;;;;;;12.35;6.70;;;18.50;99.90;;;;;;5020133;28;20071;-70
2023/09/10 00:51:56;;;;;;;10.70;7.13;;;18.50;99.90;;;;;;5019720;28;20031;-70
2023/09/10 00:54:23;;;;;;;10.15;6.68;;;18.60;99.90;;;;;;5019715;28;20018;-70
2023/09/10 00:56:49;;;;;;;10.85;7.05;;;18.70;99.90;;;;;;5019655;28;20028;-70
2023/09/10 00:59:15;;;;;;;14.52;7.10;;;18.70;99.90;;;;;;5019423;28;20032;-70
2023/09/10 01:01:40;;;;;;;10.82;7.05;;;18.70;99.90;;;;;;5019531;28;20025;-70
2023/09/10 01:04:06;;;;;;;12.80;6.97;;;18.70;99.90;;;;;;5019761;28;20063;-70
2023/09/10 01:06:31;;;;;;;9.30;6.20;;;18.70;99.90;;;;;;5020292;28;20051;-70
2023/09/10 01:08:58;;;;;;;10.50;6.60;;;18.80;99.90;;;;;;5019960;28;20044;-70
2023/09/10 01:11:42;;;;;;;10.73;5.93;;;18.70;99.90;;;;;;5019396;28;20021;-68
2023/09/10 01:14:18;;;;;;;10.75;6.20;;;18.70;99.90;;;;;;5037016;28;20025;-68
2023/09/10 01:16:55;;;;;;;10.02;7.55;;;18.60;99.90;;;;;;5037002;28;20022;-68
2023/09/10 01:19:35;;;;;;;10.48;6.43;;;18.50;99.90;;;;;;5036795;28;20025;-68
2023/09/10 01:22:13;;;;;;;12.27;6.18;;;18.50;99.90;;;;;;5036937;28;20094;-68
2023/09/10 01:24:50;;;;;;;16.70;6.65;;;18.40;99.90;;;;;;5036596;28;20052;-68
2023/09/10 01:27:15;;;;;;;10.95;6.95;;;18.30;99.90;;;;;;5019280;28;20034;-67
2023/09/10 01:29:42;;;;;;;20.15;7.03;;;18.30;99.90;;;;;;5019366;28;20033;-68
2023/09/10 01:32:23;;;;;;;10.40;6.50;;;18.20;99.90;;;;;;5019515;28;20036;-68
2023/09/10 01:34:55;;;;;;;13.77;6.60;;;18.20;99.90;;;;;;5019393;28;20021;-68
2023/09/10 01:37:29;;;;;;;9.75;6.72;;;18.20;99.90;;;;;;5019145;28;20026;-68
2023/09/10 01:39:58;;;;;;;13.07;6.50;;;18.30;99.90;;;;;;5019889;28;20214;-68
2023/09/10 01:42:24;;;;;;;9.90;6.70;;;18.30;99.90;;;;;;5019266;28;20097;-68
2023/09/10 01:44:51;;;;;;;11.13;6.65;;;18.40;99.90;;;;;;5018968;28;20032;-68
2023/09/10 01:47:17;;;;;;;9.65;6.95;;;18.40;99.90;;;;;;5019460;28;20021;-68
2023/09/10 01:49:43;;;;;;;10.07;6.07;;;18.30;99.90;;;;;;5019400;28;20112;-68
2023/09/10 01:52:08;;;;;;;8.98;6.35;;;18.30;99.90;;;;;;5019855;28;20025;-67
2023/09/10 01:54:34;;;;;;;10.00;6.47;;;18.20;99.90;;;;;;5019908;28;20022;-68
2023/09/10 01:57:00;;;;;;;10.85;6.65;;;18.00;99.90;;;;;;5021516;28;20059;-68
2023/09/10 01:59:26;;;;;;;10.85;7.38;;;18.00;99.90;;;;;;5022463;28;20025;-68
2023/09/10 02:01:51;;;;;;;12.93;6.45;;;18.00;99.90;;;;;;5023614;28;20029;-68
2023/09/10 02:04:17;;;;;;;9.75;6.82;;;18.00;99.90;;;;;;5022515;28;20022;-68
2023/09/10 02:06:42;;;;;;;10.57;6.07;;;18.00;99.90;;;;;;5022221;28;20026;-68
2023/09/10 02:09:08;;;;;;;10.00;6.65;;;18.10;99.90;;;;;;5022969;28;20027;-67
2023/09/10 02:11:33;;;;;;;9.95;7.03;;;18.00;99.90;;;;;;5022403;28;20064;-68
2023/09/10 02:13:59;;;;;;;8.52;6.55;;;18.10;99.90;;;;;;5022530;28;20049;-68
2023/09/10 02:16:25;;;;;;;16.88;6.72;;;18.20;99.90;;;;;;5022245;28;20041;-67
2023/09/10 02:18:50;;;;;;;9.15;5.82;;;18.20;99.90;;;;;;5022431;28;20021;-67
2023/09/10 02:21:16;;;;;;;12.48;7.18;;;18.20;99.90;;;;;;5023097;28;20029;-68
2023/09/10 02:23:42;;;;;;;9.10;6.03;;;18.20;99.90;;;;;;5022361;28;20022;-68
2023/09/10 02:26:07;;;;;;;8.30;5.53;;;18.20;99.90;;;;;;5021954;28;20116;-68
2023/09/10 02:28:33;;;;;;;8.98;6.13;;;18.10;99.90;;;;;;5022035;28;20091;-68
2023/09/10 02:31:06;;;;;;;13.45;6.20;;;18.00;99.90;;;;;;5021922;28;20026;-68
2023/09/10 02:33:33;;;;;;;9.02;6.18;;;18.00;99.90;;;;;;5021786;28;20025;-68
2023/09/10 02:35:58;;;;;;;12.35;6.47;;;17.90;99.90;;;;;;5022179;28;20029;-68
2023/09/10 02:38:24;;;;;;;10.55;6.43;;;17.90;99.90;;;;;;5039455;28;20022;-68
2023/09/10 02:40:51;;;;;;;10.27;6.55;;;17.80;99.90;;;;;;5022159;28;20025;-68
2023/09/10 02:43:16;;;;;;;8.98;5.85;;;17.80;99.90;;;;;;5021678;28;20021;-68
2023/09/10 02:45:42;;;;;;;11.20;5.40;;;17.80;99.90;;;;;;5039604;28;20091;-68
2023/09/10 02:48:07;;;;;;;10.85;5.65;;;17.70;99.90;;;;;;5038987;28;20025;-68
2023/09/10 02:50:33;;;;;;;7.88;5.75;;;17.70;99.90;;;;;;5021940;28;20064;-68
2023/09/10 02:52:58;;;;;;;7.65;5.60;;;17.70;99.90;;;;;;5021841;28;20021;-68
2023/09/10 02:55:24;;;;;;;9.35;6.47;;;17.70;99.90;;;;;;5021428;28;20026;-68
2023/09/10 02:57:49;;;;;;;11.45;6.78;;;17.70;99.90;;;;;;5021702;28;20018;-68
2023/09/10 03:00:16;;;;;;;9.43;6.80;;;17.70;99.90;;;;;;5021752;28;20108;-67
2023/09/10 03:02:41;;;;;;;13.40;6.90;;;17.70;99.90;;;;;;5021230;28;20067;-67
2023/09/10 03:05:07;;;;;;;9.98;6.45;;;17.70;99.90;;;;;;5038930;28;20029;-67
2023/09/10 03:07:33;;;;;;;10.13;6.47;;;17.70;99.90;;;;;;5021579;28;20064;-68
2023/09/10 03:09:58;;;;;;;11.35;5.80;;;17.80;99.90;;;;;;5020697;28;20033;-68
2023/09/10 03:12:26;;;;;;;8.98;6.18;;;17.80;99.90;;;;;;5022273;28;20021;-68
2023/09/10 03:14:51;;;;;;;11.10;6.15;;;17.70;99.90;;;;;;5038752;28;20100;-68
2023/09/10 03:17:18;;;;;;;7.00;4.88;;;17.70;99.90;;;;;;5038490;28;20100;-68
2023/09/10 03:19:44;;;;;;;11.68;5.20;;;17.70;99.90;;;;;;5021625;28;20117;-67
2023/09/10 03:22:13;;;;;;;9.05;6.07;;;17.70;99.90;;;;;;5038400;28;20029;-68
2023/09/10 03:24:39;;;;;;;12.30;6.47;;;17.60;99.90;;;;;;5020895;28;20037;-67
2023/09/10 03:27:05;;;;;;;10.40;6.03;;;17.50;99.90;;;;;;5020924;28;20021;-68
2023/09/10 03:29:34;;;;;;;10.32;6.25;;;17.40;99.90;;;;;;5020779;28;20022;-68
2023/09/10 03:32:02;;;;;;;9.48;5.72;;;17.30;99.90;;;;;;5021562;28;20032;-68
2023/09/10 03:34:27;;;;;;;9.18;5.78;;;17.40;99.90;;;;;;5020676;28;20104;-68
2023/09/10 03:36:53;;;;;;;8.75;5.57;;;17.40;99.90;;;;;;5021141;28;20049;-68
2023/09/10 03:39:18;;;;;;;12.85;5.80;;;17.40;99.90;;;;;;5020654;28;20075;-67
2023/09/10 03:41:45;;;;;;;10.85;6.65;;;17.30;99.90;;;;;;5020560;28;20025;-68
2023/09/10 03:44:10;;;;;;;9.40;6.25;;;17.20;99.90;;;;;;5020782;28;20025;-68
2023/09/10 03:46:36;;;;;;;9.27;5.95;;;17.10;99.90;;;;;;5021418;28;20080;-68
2023/09/10 03:49:01;;;;;;;8.68;6.72;;;17.10;99.90;;;;;;5038013;28;20025;-68
2023/09/10 03:51:27;;;;;;;11.57;7.13;;;17.10;99.90;;;;;;5038408;28;20021;-68
2023/09/10 03:53:53;;;;;;;10.48;7.20;;;17.10;99.90;;;;;;5037969;28;20029;-68
2023/09/10 03:56:19;;;;;;;13.70;6.85;;;17.10;99.90;;;;;;5037811;28;20049;-68
2023/09/10 03:58:44;;;;;;;15.32;7.65;;;17.10;99.90;;;;;;5037958;28;20104;-68
2023/09/10 04:01:10;;;;;;;10.15;6.60;;;17.20;99.90;;;;;;5020433;28;20033;-68
2023/09/10 04:03:35;;;;;;;8.68;6.22;;;17.30;99.90;;;;;;5020262;28;20025;-68
2023/09/10 04:06:01;;;;;;;12.48;6.82;;;17.30;99.90;;;;;;5037513;28;20076;-68
2023/09/10 04:08:26;;;;;;;16.73;6.80;;;17.40;99.90;;;;;;5020058;28;20022;-68
2023/09/10 04:10:52;;;;;;;11.68;6.50;;;17.40;99.90;;;;;;5020205;28;20044;-68
2023/09/10 04:13:17;;;;;;;9.38;6.68;;;17.50;99.90;;;;;;5037267;28;20025;-68
2023/09/10 04:15:43;;;;;;;9.55;6.50;;;17.50;99.90;;;;;;5020133;28;20029;-68
2023/09/10 04:18:09;;;;;;;9.23;5.82;;;17.50;99.90;;;;;;5020302;28;20037;-67
2023/09/10 04:20:34;;;;;;;9.88;5.90;;;17.30;99.90;;;;;;5019650;28;20076;-68
2023/09/10 04:23:00;;;;;;;9.00;6.75;;;17.10;99.90;;;;;;5019900;28;20022;-68
2023/09/10 04:25:25;;;;;;;9.45;6.38;;;17.00;99.90;;;;;;5019882;28;20112;-68
2023/09/10 04:27:51;;;;;;;10.55;6.72;;;17.00;99.90;;;;;;5037092;28;20025;-68
2023/09/10 04:30:16;;;;;;;10.57;6.38;;;17.10;99.90;;;;;;5020271;28;20037;-68
2023/09/10 04:32:42;;;;;;;8.80;6.45;;;17.20;99.90;;;;;;5020758;28;20022;-68
2023/09/10 04:35:08;;;;;;;12.85;6.47;;;17.30;99.90;;;;;;5037387;28;20054;-68
2023/09/10 04:37:34;;;;;;;15.05;7.40;;;17.30;99.90;;;;;;5019822;28;20022;-68
2023/09/10 04:40:06;;;;;;;17.05;7.90;;;17.30;99.90;;;;;;5020063;28;20036;-67
2023/09/10 04:42:32;;;;;;;11.68;7.72;;;17.30;99.90;;;;;;5020865;28;20032;-68
2023/09/10 04:44:58;;;;;;;9.35;6.43;;;17.30;99.90;;;;;;5019666;28;20026;-68
2023/09/10 04:47:23;;;;;;;10.95;6.82;;;17.20;99.90;;;;;;5020616;28;20048;-67
2023/09/10 04:49:49;;;;;;;11.70;6.60;;;17.20;99.90;;;;;;5019962;28;20017;-67
2023/09/10 04:52:15;;;;;;;9.32;6.50;;;17.10;99.90;;;;;;5019714;28;20063;-67
2023/09/10 04:54:41;;;;;;;9.52;6.55;;;17.10;99.90;;;;;;5019546;28;20029;-68
2023/09/10 04:57:08;;;;;;;9.25;6.80;;;17.00;99.90;;;;;;5020089;28;20025;-68
2023/09/10 04:59:33;;;;;;;10.75;6.88;;;16.90;99.90;;;;;;5020096;28;20112;-68
2023/09/10 05:02:00;;;;;;;8.65;6.30;;;16.90;99.90;;;;;;5019926;28;20111;-68
2023/09/10 05:04:25;;;;;;;8.48;6.50;;;16.90;99.90;;;;;;5019553;28;20033;-68
2023/09/10 05:06:51;;;;;;;13.70;7.10;;;16.90;99.90;;;;;;5019363;28;20025;-68
2023/09/10 05:09:17;;;;;;;10.90;7.05;;;16.90;99.90;;;;;;5020115;28;20116;-68
2023/09/10 05:11:42;;;;;;;10.07;7.13;;;17.00;99.90;;;;;;5020000;28;20028;-68
2023/09/10 05:14:08;;;;;;;12.55;6.95;;;17.00;99.90;;;;;;5019663;28;20112;-68
2023/09/10 05:16:33;;;;;;;7.60;6.20;;;17.20;99.90;;;;;;5020131;28;20026;-67
2023/09/10 05:18:59;;;;;;;9.38;5.88;;;17.20;99.90;;;;;;5019264;28;20033;-68
2023/09/10 05:21:24;;;;;;;8.50;5.80;;;17.10;99.90;;;;;;5019412;28;20029;-68
2023/09/10 05:23:50;;;;;;;8.88;5.40;;;16.90;99.90;;;;;;5019428;28;20089;-68
2023/09/10 05:26:16;;;;;;;9.88;5.20;;;16.80;99.90;;;;;;5019222;28;20029;-68
2023/09/10 05:28:41;;;;;;;9.55;5.30;;;16.80;99.90;;;;;;5019287;28;20038;-68
2023/09/10 05:31:09;;;;;;;8.57;6.45;;;16.80;99.90;;;;;;5042587;22;20051;-68
2023/09/10 05:33:35;;;;;;;14.23;7.05;;;16.70;99.90;;;;;;5023041;28;20022;-68
2023/09/10 05:36:00;;;;;;;12.30;8.25;;;16.80;99.90;;;;;;5024134;28;20052;-68
2023/09/10 05:38:26;;;;;;;12.82;7.85;;;17.00;99.90;;;;;;5022867;28;20025;-68
2023/09/10 05:40:53;;;;;;;10.68;7.65;;;17.10;99.90;;;;;;5022938;28;20053;-68
2023/09/10 05:43:19;;;;;;;11.07;7.70;;;17.20;99.90;;;;;;5023353;28;20033;-67
2023/09/10 05:45:47;;;;;;;11.73;7.97;;;17.30;99.90;;;;;;5023086;28;20026;-68
2023/09/10 05:48:13;;;;;;;13.45;7.45;;;17.30;99.90;;;;;;5040181;28;20018;-68
2023/09/10 05:50:40;;;;;;;11.90;8.27;;;17.30;99.90;;;;;;5022808;28;20018;-68
2023/09/10 05:53:06;;;;;;;12.75;8.20;;;17.30;99.90;;;;;;5040172;28;20044;-68
2023/09/10 05:55:31;;;;;;;19.05;10.10;;;17.20;99.90;;;;;;5022720;28;20018;-68
2023/09/10 05:57:57;;;;;;;15.88;8.65;;;17.10;99.90;;;;;;5022928;28;20022;-68
2023/09/10 06:00:23;;;;;;;12.68;7.82;;;16.90;99.90;;;;;;5022537;28;20021;-68
2023/09/10 06:02:49;;;;;;;14.30;8.43;;;16.80;99.90;;;;;;5039929;28;20032;-68
2023/09/10 06:05:15;;;;;;;13.95;8.77;;;16.70;99.90;;;;;;5040022;28;20025;-68
2023/09/10 06:07:42;;;;;;;16.95;9.10;;;16.60;99.90;;;;;;5022243;28;20041;-68
2023/09/10 06:10:09;;;;;;;13.63;7.82;;;16.50;99.90;;;;;;5039624;28;20024;-68
2023/09/10 06:12:38;;;;;;;12.80;7.97;;;16.70;99.90;;;;;;5039696;28;20017;-68
2023/09/10 06:15:05;;;;;;;12.00;7.60;;;16.90;99.90;;;;;;5039711;28;20022;-68
2023/09/10 06:17:32;;;;;;;14.95;8.38;;;17.10;99.90;;;;;;5022163;28;20060;-68
2023/09/10 06:19:57;;;;;;;13.20;8.05;;;17.20;99.90;;;;;;5039450;28;20037;-68
2023/09/10 06:22:23;;;;;;;11.45;7.85;;;17.30;99.90;;;;;;5022082;28;20022;-68
2023/09/10 06:24:48;;;;;;;16.33;8.15;;;17.50;99.90;;;;;;5022079;28;20113;-68
2023/09/10 06:27:14;;;;;;;12.80;7.40;;;17.60;99.90;;;;;;5022005;28;20029;-68
2023/09/10 06:29:39;;;;;;;15.68;8.23;;;17.80;99.90;;;;;;5023276;28;20052;-63
2023/09/10 06:32:05;;;;;;;10.88;7.35;;;17.80;99.90;;;;;;5022409;28;20029;-64
2023/09/10 06:34:30;;;;;;;14.25;8.27;;;17.80;99.90;;;;;;5021943;28;20044;-63
2023/09/10 06:36:56;;;;;;;12.93;8.38;;;17.90;99.90;;;;;;5039106;28;20033;-63
2023/09/10 06:39:22;;;;;;;13.90;9.18;;;17.80;99.90;;;;;;5021772;28;20026;-64
2023/09/10 06:41:48;;;;;;;13.48;9.15;;;18.00;99.90;;;;;;5022630;28;20052;-64
2023/09/10 06:44:13;;;;;;;12.48;8.55;;;18.10;99.90;;;;;;5038860;28;20025;-63
2023/09/10 06:46:39;;;;;;;13.95;8.93;;;18.10;99.90;;;;;;5038987;28;20029;-63
2023/09/10 06:49:04;;;;;;;18.10;10.15;;;18.20;99.90;;;;;;5021561;28;20035;-63
2023/09/10 06:51:30;;;;;;;14.02;8.88;;;18.40;99.90;;;;;;5039301;28;20021;-63
2023/09/10 06:53:55;;;;;;;14.13;10.30;;;18.50;99.90;;;;;;5021830;28;20032;-64
2023/09/10 06:56:21;;;;;;;15.15;8.40;;;18.60;99.90;;;;;;5021606;28;20030;-64
2023/09/10 06:58:47;;;;;;;17.20;8.50;;;18.60;99.90;;;;;;5039023;28;20037;-64
2023/09/10 07:01:18;;;;;;;16.85;8.38;;;18.60;99.90;;;;;;5038648;28;20060;-63
2023/09/10 07:03:49;;;;;;;14.02;9.38;;;18.50;99.90;;;;;;5038835;28;20032;-63
2023/09/10 07:06:15;;;;;;;13.80;9.07;;;18.50;99.90;;;;;;5038873;28;20029;-63
2023/09/10 07:08:40;;;;;;;16.65;9.38;;;18.60;99.90;;;;;;5021202;28;20116;-63
2023/09/10 07:11:06;;;;;;;13.38;8.75;;;18.80;99.90;;;;;;5038711;28;20026;-64
2023/09/10 07:13:31;;;;;;;15.50;8.30;;;18.90;99.90;;;;;;5038633;28;20187;-63
2023/09/10 07:15:57;;;;;;;14.90;8.15;;;19.00;99.90;;;;;;5021171;28;20116;-64
2023/09/10 07:18:22;;;;;;;13.88;8.38;;;19.10;99.90;;;;;;5038359;28;20029;-64
2023/09/10 07:20:48;;;;;;;14.40;8.18;;;19.20;99.90;;;;;;5038320;28;20067;-64
2023/09/10 07:23:14;;;;;;;16.30;9.15;;;19.40;99.90;;;;;;5038356;28;20025;-64
2023/09/10 07:25:39;;;;;;;14.35;7.97;;;19.40;99.90;;;;;;5020951;28;20025;-64
2023/09/10 07:28:06;;;;;;;14.48;8.63;;;19.30;99.90;;;;;;5038214;28;20021;-64
2023/09/10 07:30:32;;;;;;;14.73;8.35;;;19.40;99.90;;;;;;5038145;28;20056;-64
2023/09/10 07:32:57;;;;;;;16.13;9.30;;;19.50;99.90;;;;;;5038236;28;20021;-64
2023/09/10 07:35:23;;;;;;;15.85;9.05;;;19.50;99.90;;;;;;5038332;28;20060;-64
2023/09/10 07:37:48;;;;;;;12.82;9.00;;;19.60;99.90;;;;;;5038352;28;20057;-64
2023/09/10 07:40:14;;;;;;;14.82;8.90;;;19.60;99.90;;;;;;5020770;28;20028;-64
2023/09/10 07:42:40;;;;;;;14.38;8.07;;;19.70;99.90;;;;;;5020851;28;20057;-64
2023/09/10 07:45:13;;;;;;;14.60;9.48;;;19.70;99.90;;;;;;5038143;28;20037;-63
2023/09/10 07:47:39;;;;;;;11.88;7.50;;;19.70;99.90;;;;;;5037842;28;20056;-64
2023/09/10 07:50:05;;;;;;;14.45;8.40;;;19.70;99.90;;;;;;5037876;28;20026;-64
2023/09/10 07:52:30;;;;;;;14.07;9.63;;;19.90;99.90;;;;;;5021269;28;20030;-65
2023/09/10 07:54:56;;;;;;;15.98;9.23;;;19.90;99.90;;;;;;5037101;28;20032;-65
2023/09/10 07:57:21;;;;;;;13.02;9.07;;;20.00;99.90;;;;;;5037791;28;20068;-65
2023/09/10 07:59:47;;;;;;;15.38;8.50;;;20.00;99.90;;;;;;5020207;28;20029;-65
2023/09/10 08:02:13;;;;;;;14.25;8.90;;;20.10;99.90;;;;;;5020392;28;20029;-66
2023/09/10 08:04:39;;;;;;;13.75;8.43;;;20.20;99.90;;;;;;5020336;28;20025;-65
2023/09/10 08:07:04;;;;;;;12.57;8.10;;;20.30;99.90;;;;;;5037488;28;20025;-65
2023/09/10 08:09:31;;;;;;;15.80;8.32;;;20.30;99.90;;;;;;5037605;28;20097;-66
2023/09/10 08:11:57;;;;;;;10.88;7.95;;;20.40;99.90;;;;;;5037628;28;20029;-66
2023/09/10 08:14:22;;;;;;;15.75;8.65;;;20.50;99.90;;;;;;5037475;28;20048;-66
2023/09/10 08:16:48;;;;;;;10.57;7.38;;;20.50;99.90;;;;;;5020115;28;20026;-66
2023/09/10 08:19:13;;;;;;;11.02;8.30;;;20.60;99.90;;;;;;5020098;28;20021;-65
2023/09/10 08:21:39;;;;;;;15.73;7.90;;;20.70;99.90;;;;;;5020042;28;20029;-64
2023/09/10 08:24:05;;;;;;;12.75;7.70;;;20.80;99.90;;;;;;5037254;28;20033;-64
2023/09/10 08:26:30;;;;;;;11.60;7.72;;;20.90;99.90;;;;;;5037099;28;20032;-64
2023/09/10 08:28:56;;;;;;;11.30;7.95;;;21.00;99.90;;;;;;5019811;28;20028;-64
2023/09/10 08:31:21;;;;;;;14.35;8.00;;;21.10;99.90;;;;;;5019806;28;20041;-64
2023/09/10 08:33:47;;;;;;;11.20;7.18;;;21.20;99.90;;;;;;5019794;28;20040;-64
2023/09/10 08:36:12;;;;;;;12.85;7.72;;;21.30;99.90;;;;;;5019812;28;20026;-64
2023/09/10 08:38:38;;;;;;;13.02;8.13;;;21.40;99.90;;;;;;5019880;28;20052;-65
2023/09/10 08:41:23;;;;;;;15.38;7.90;;;21.50;99.90;;;;;;5037210;28;20053;-64
2023/09/10 08:43:58;;;;;;;14.88;7.43;;;21.50;99.90;;;;;;5019800;28;20091;-64
2023/09/10 08:46:30;;;;;;;11.10;7.28;;;21.70;99.90;;;;;;5019613;28;20036;-64
2023/09/10 08:48:57;;;;;;;13.75;6.95;;;21.90;99.90;;;;;;5020374;28;20072;-65
2023/09/10 08:51:23;;;;;;;10.57;7.13;;;22.00;99.90;;;;;;5036741;28;20109;-65
2023/09/10 08:53:50;;;;;;;14.15;8.05;;;22.00;99.90;;;;;;5020228;28;20025;-65
2023/09/10 08:56:16;;;;;;;9.88;6.65;;;22.10;99.90;;;;;;5019895;28;20029;-65
2023/09/10 08:58:42;;;;;;;15.02;7.63;;;22.20;99.90;;;;;;5037020;28;20071;-65
2023/09/10 09:01:08;;;;;;;10.02;6.70;;;22.30;99.90;;;;;;5037147;28;20032;-65
2023/09/10 09:03:35;;;;;;;8.52;6.45;;;22.50;99.90;;;;;;5020156;28;20021;-65
2023/09/10 09:06:05;;;;;;;10.95;7.25;;;22.60;99.90;;;;;;5021289;28;20116;-65
2023/09/10 09:08:35;;;;;;;11.50;7.07;;;22.60;99.90;;;;;;5024227;28;20067;-65
2023/09/10 09:11:04;;;;;;;13.00;7.13;;;22.70;99.90;;;;;;5023412;28;20021;-65
2023/09/10 09:13:34;;;;;;;15.05;7.50;;;22.80;99.90;;;;;;5040866;28;20025;-65
2023/09/10 09:16:02;;;;;;;12.07;6.65;;;22.90;99.90;;;;;;5024187;28;20044;-65
2023/09/10 09:18:29;;;;;;;14.25;6.95;;;22.90;99.90;;;;;;5040970;28;20029;-65
2023/09/10 09:20:57;;;;;;;9.07;6.20;;;23.10;99.90;;;;;;5040595;28;20029;-65
2023/09/10 09:23:29;;;;;;;14.65;6.68;;;23.10;99.90;;;;;;5040724;28;20025;-65
2023/09/10 09:25:56;;;;;;;9.38;6.80;;;23.30;99.90;;;;;;5023311;28;20028;-65
2023/09/10 09:28:23;;;;;;;11.55;6.80;;;23.50;99.90;;;;;;5023187;28;20045;-65
2023/09/10 09:30:49;;;;;;;11.75;6.60;;;23.60;99.90;;;;;;5022939;28;20099;-65
2023/09/10 09:33:15;;;;;;;12.73;7.07;;;23.80;99.90;;;;;;5023086;28;20022;-65
2023/09/10 09:35:40;;;;;;;11.35;6.40;;;23.90;99.90;;;;;;5040938;28;20108;-65
2023/09/10 09:38:10;;;;;;;13.45;6.80;;;24.00;99.90;;;;;;5023321;28;20063;-65
2023/09/10 09:40:36;;;;;;;16.38;6.47;;;24.10;99.90;;;;;;5040412;28;20018;-65
2023/09/10 09:43:05;;;;;;;12.27;6.50;;;24.30;99.90;;;;;;5040708;28;20022;-65
2023/09/10 09:45:32;;;;;;;11.80;6.93;;;24.50;99.90;;;;;;5023057;28;20028;-65
2023/09/10 09:47:58;;;;;;;12.98;6.65;;;24.70;99.90;;;;;;5022857;28;20029;-65
2023/09/10 09:50:26;;;;;;;14.38;6.93;;;24.90;99.90;;;;;;5040677;28;20025;-65
2023/09/10 09:52:54;;;;;;;12.63;7.00;;;25.10;99.90;;;;;;5040022;28;20021;-65
2023/09/10 09:55:19;;;;;;;14.35;6.82;;;25.10;99.90;;;;;;5022495;28;20044;-65
2023/09/10 09:57:51;;;;;;;10.20;6.07;;;25.20;99.90;;;;;;5023110;28;20112;-65
2023/09/10 10:00:17;;;;;;;14.75;6.95;;;25.30;99.90;;;;;;5039839;28;20037;-65
2023/09/10 10:02:44;;;;;;;11.52;6.88;;;25.30;99.90;;;;;;5022444;28;20022;-65
2023/09/10 10:05:11;;;;;;;12.50;6.70;;;25.40;99.90;;;;;;5039903;28;20037;-65
2023/09/10 10:07:37;;;;;;;10.38;6.68;;;25.60;99.90;;;;;;5039758;28;20056;-65
2023/09/10 10:10:06;;;;;;;11.40;6.80;;;25.60;99.90;;;;;;5039763;28;20022;-65
2023/09/10 10:12:32;;;;;;;13.35;6.75;;;25.80;99.90;;;;;;5039737;28;20022;-65
2023/09/10 10:14:59;;;;;;;15.05;7.70;;;25.80;99.90;;;;;;5039911;28;20023;-65
2023/09/10 10:17:26;;;;;;;15.80;6.57;;;26.00;99.90;;;;;;5022037;28;20031;-65
2023/09/10 10:19:52;;;;;;;20.88;8.88;;;26.10;99.90;;;;;;5022160;28;20053;-65
2023/09/10 10:22:18;;;;;;;15.60;6.95;;;26.20;99.90;;;;;;5039535;28;20059;-65
2023/09/10 10:24:45;;;;;;;14.60;7.00;;;26.40;99.90;;;;;;5039472;28;20022;-65
2023/09/10 10:27:13;;;;;;;23.30;6.90;;;26.40;99.90;;;;;;5039385;28;20053;-65
2023/09/10 10:29:39;;;;;;;9.55;5.57;;;26.40;99.90;;;;;;5039567;28;20021;-71
2023/09/10 10:32:22;;;;;;;18.45;6.65;;;26.40;99.90;;;;;;5039808;28;20036;-71
2023/09/10 10:35:01;;;;;;;14.23;6.72;;;26.50;99.90;;;;;;5022716;28;20017;-71
2023/09/10 10:37:37;;;;;;;19.00;7.10;;;26.80;99.90;;;;;;5022027;28;20034;-70
2023/09/10 10:40:10;;;;;;;17.40;6.82;;;26.80;99.90;;;;;;5022027;28;20021;-71
2023/09/10 10:42:47;;;;;;;20.33;6.50;;;26.80;99.90;;;;;;5039497;28;20044;-71
2023/09/10 10:45:17;;;;;;;10.95;6.22;;;26.80;99.90;;;;;;5039201;28;20021;-71
2023/09/10 10:47:45;;;;;;;14.45;5.50;;;26.80;99.90;;;;;;5021652;28;20021;-71
2023/09/10 10:50:11;;;;;;;14.35;6.57;;;26.90;99.90;;;;;;5038863;28;20064;-71
2023/09/10 10:52:55;;;;;;;15.38;6.40;;;26.90;99.90;;;;;;5022048;28;20025;-71
2023/09/10 10:55:23;;;;;;;15.35;5.82;;;26.90;99.90;;;;;;5021762;28;20025;-71
2023/09/10 10:57:49;;;;;;;19.05;6.78;;;27.00;99.90;;;;;;5038976;28;20060;-70
2023/09/10 11:00:15;;;;;;;12.63;6.05;;;27.00;99.90;;;;;;5021428;28;20032;-69
2023/09/10 11:02:40;;;;;;;12.70;5.78;;;27.20;99.90;;;;;;5038700;28;20030;-69
2023/09/10 11:05:07;;;;;;;12.25;6.03;;;27.30;99.90;;;;;;5038762;28;20044;-69
2023/09/10 11:07:33;;;;;;;15.75;6.35;;;27.30;99.90;;;;;;5038734;28;20056;-69
2023/09/10 11:10:26;;;;;;;16.40;7.63;;;27.30;99.90;;;;;;5021597;28;20075;-69
2023/09/10 11:13:07;;;;;;;14.20;5.55;;;27.40;99.90;;;;;;5014008;28;20116;-69
2023/09/10 11:15:33;;;;;;;13.82;5.18;;;27.60;99.90;;;;;;5038619;28;20025;-69
2023/09/10 11:18:37;;;;;;;15.88;5.60;;;27.60;99.90;;;;;;5038912;28;20031;-69
2023/09/10 11:21:06;;;;;;;13.55;5.15;;;27.70;99.90;;;;;;5038593;28;20051;-69
2023/09/10 11:23:33;;;;;;;13.20;5.13;;;27.80;99.90;;;;;;5021032;28;20022;-69
2023/09/10 11:26:14;;;;;;;19.65;6.13;;;27.80;99.90;;;;;;5020933;28;20099;-69
2023/09/10 11:28:43;;;;;;;15.88;4.90;;;28.10;99.90;;;;;;5037708;28;20075;-69
2023/09/10 11:31:33;;;;;;;17.77;5.97;;;28.20;99.90;;;;;;5038403;28;20040;-71
2023/09/10 11:34:22;;;;;;;21.40;5.72;;;28.10;99.90;;;;;;5020852;28;20041;-71
2023/09/10 11:36:48;;;;;;;17.33;4.78;;;28.10;99.90;;;;;;5038573;28;20022;-71
2023/09/10 11:39:15;;;;;;;14.63;4.97;;;28.00;99.90;;;;;;5020918;28;20021;-71
2023/09/10 11:41:43;;;;;;;17.67;5.10;;;28.10;99.90;;;;;;5037984;28;20032;-71
2023/09/10 11:44:09;;;;;;;21.45;6.00;;;28.20;99.90;;;;;;5038265;28;20108;-71
2023/09/10 11:46:38;;;;;;;19.02;5.10;;;28.30;99.90;;;;;;5037839;28;20116;-71
2023/09/10 11:49:04;;;;;;;18.15;5.97;;;28.30;99.90;;;;;;5020915;28;20022;-71
2023/09/10 11:51:30;;;;;;;17.63;5.32;;;28.30;99.90;;;;;;5020449;28;20018;-71
2023/09/10 11:53:57;;;;;;;14.88;5.53;;;28.40;99.90;;;;;;5037870;28;20052;-71
2023/09/10 11:56:23;;;;;;;25.67;6.32;;;28.40;99.90;;;;;;5037846;28;20083;-71
2023/09/10 11:58:48;;;;;;;17.15;5.50;;;28.40;99.90;;;;;;5037706;28;20025;-71
2023/09/10 12:01:14;;;;;;;29.17;6.00;;;28.30;99.90;;;;;;5020284;28;20026;-71
2023/09/10 12:03:41;;;;;;;19.77;5.82;;;28.30;99.90;;;;;;5020301;28;20060;-70
2023/09/10 12:06:07;;;;;;;24.17;6.18;;;28.30;99.90;;;;;;5037746;28;20029;-71
2023/09/10 12:08:33;;;;;;;18.42;5.28;;;28.30;99.90;;;;;;5037690;28;20028;-71
2023/09/10 12:11:03;;;;;;;18.25;5.93;;;28.40;99.90;;;;;;5019988;28;20029;-71
2023/09/10 12:13:29;;;;;;;14.60;4.78;;;28.50;99.90;;;;;;5037519;28;20017;-71
2023/09/10 12:15:55;;;;;;;24.02;5.97;;;28.50;99.90;;;;;;5037458;28;20029;-71
2023/09/10 12:18:22;;;;;;;24.13;5.78;;;28.50;99.90;;;;;;5038037;28;20026;-71
2023/09/10 12:20:48;;;;;;;19.83;5.35;;;28.60;99.90;;;;;;5020228;28;20044;-71
2023/09/10 12:23:14;;;;;;;37.15;6.13;;;28.60;99.90;;;;;;5020625;28;20072;-71
2023/09/10 12:25:40;;;;;;;19.05;5.40;;;28.60;99.90;;;;;;5037606;28;20025;-71
2023/09/10 12:28:07;;;;;;;16.88;4.75;;;28.70;99.90;;;;;;5037518;28;20028;-71
2023/09/10 12:30:33;;;;;;;29.70;5.35;;;28.70;99.90;;;;;;5037404;28;20018;-71
2023/09/10 12:33:00;;;;;;;25.20;5.40;;;28.80;99.90;;;;;;5037971;28;20021;-71
2023/09/10 12:35:26;;;;;;;27.33;5.82;;;28.80;99.90;;;;;;5020067;28;20025;-71
2023/09/10 12:37:53;;;;;;;25.65;4.80;;;28.80;99.90;;;;;;5037024;28;20025;-71